Weather at OR Tambo International Airport

Public forecast

Using degrees Celsius for public forecast. Weather courtesy of forecast.io.

Current aviation weather report (METAR) for OR Tambo International Airport

2024/04/22 06:30 (retrieved 11 minutes ago)

FAOR 220630Z 30006KT CAVOK 22/07 Q1026 NOSIG

Aviation forecast (TAF) for OR Tambo International Airport

2024/04/22 06:00 (retrieved 41 minutes ago)

TAF FAOR 220400Z 2206/2312 VRB03KT CAVOK TX28/2213Z TN17/2303Z BECMG 2208/2210 31012KT BECMG 2218/2220 24008KT